Murzuq, Libya
Current Conditions -  °F | °C
As of 2:00 AM on Wednesday 26 Nov 2014 (Local Time) from DAUZ Reporting Station
Clear Clear  
Wind Chill: 63°   Ceiling: Unl
Heat Index: 63°   Visibility: 6mi
Dew Point: 32°   Wind: 14mph
Humidity: 32%   Direction: 80°E
Pressure: 29.97"   Gusts: NA
Location:  25.97°N, 14.05°E
Report Text: DAUZ 252300Z 08012KT CAVOK 17/M00 Q1015
Loading
Personal Weather Stations






























Interactive Weather Map New forecast layout! Learn more

10-Day Weather Forecast

Advertisements
Track Severe Weather on mobile